Time;durP1;ratioP1;P1;durP2;ratioP2;P2;SDS_P1;SDS_P2;PMS_P1;PMS_P2;Temp;Humidity;BMP_temperature;BMP_pressure;BME280_temperature;BME280_humidity;BME280_pressure;Samples;Min_cycle;Max_cycle;Signal;HPM_P1;HPM_P2
2021/07/26 00:01:56;;;;;;;;;;;;;;;;;;5063942;28;19912;-90
2021/07/26 00:04:22;;;;;;;;;;;;;;;;;;5058547;28;19999;-89
2021/07/26 00:06:48;;;;;;;;;;;;;;;;;;5072308;28;19989;-90
2021/07/26 00:09:14;;;;;;;;;;;;;;;;;;5064074;28;19932;-90
2021/07/26 00:11:40;;;;;;;;;;;;;;;;;;5060417;28;20280;-89
2021/07/26 00:14:06;;;;;;;;;;;;;;;;;;5059591;28;19909;-90
2021/07/26 00:16:32;;;;;;;;;;;;;;;;;;5081890;28;19909;-90
2021/07/26 00:18:58;;;;;;;;;;;;;;;;;;5063948;28;19912;-90
2021/07/26 00:21:23;;;;;;;;;;;;;;;;;;5060693;28;19928;-90
2021/07/26 00:23:49;;;;;;;;;;;;;;;;;;5054925;28;19924;-90
2021/07/26 00:26:16;;;;;;;;;;;;;;;;;;5054303;28;19913;-91
2021/07/26 00:28:42;;;;;;;;;;;;;;;;;;5063820;28;19992;-90
2021/07/26 00:31:08;;;;;;;;;;;;;;;;;;5067365;28;19913;-91
2021/07/26 00:33:46;;;;;;;;;;;;;;;;;;5066799;28;19909;-89
2021/07/26 00:36:12;;;;;;;;;;;;;;;;;;5059963;28;20003;-90
2021/07/26 00:38:38;;;;;;;;;;;;;;;;;;5056412;28;19951;-90
2021/07/26 00:41:05;;;;;;;;;;;;;;;;;;5058633;28;19913;-89
2021/07/26 00:43:30;;;;;;;;;;;;;;;;;;5067479;28;20163;-90
2021/07/26 00:45:56;;;;;;;;;;;;;;;;;;5064377;28;19916;-90
2021/07/26 00:48:22;;;;;;;;;;;;;;;;;;5062946;28;19958;-90
2021/07/26 00:50:48;;;;;;;;;;;;;;;;;;5060057;28;19952;-90
2021/07/26 00:53:14;;;;;;;;;;;;;;;;;;5078499;28;19956;-90
2021/07/26 00:55:41;;;;;;;;;;;;;;;;;;5066441;28;20384;-90
2021/07/26 00:58:07;;;;;;;;;;;;;;;;;;5058383;28;19963;-90
2021/07/26 01:00:33;;;;;;;;;;;;;;;;;;5054690;28;20420;-90
2021/07/26 01:02:59;;;;;;;;;;;;;;;;;;5054651;28;19939;-90
2021/07/26 01:05:25;;;;;;;;;;;;;;;;;;5079194;28;19916;-90
2021/07/26 01:07:51;;;;;;;;;;;;;;;;;;5069549;28;19908;-90
2021/07/26 01:10:16;;;;;;;;;;;;;;;;;;5063709;28;19909;-90
2021/07/26 01:12:42;;;;;;;;;;;;;;;;;;5062094;28;20335;-90
2021/07/26 01:15:10;;;;;;;;;;;;;;;;;;5051457;28;20011;-90
2021/07/26 01:17:36;;;;;;;;;;;;;;;;;;5061781;28;19909;-91
2021/07/26 01:20:02;;;;;;;;;;;;;;;;;;5057465;28;20373;-90
2021/07/26 01:22:27;;;;;;;;;;;;;;;;;;5062269;28;19982;-90
2021/07/26 01:24:53;;;;;;;;;;;;;;;;;;5068911;28;19909;-90
2021/07/26 01:27:19;;;;;;;;;;;;;;;;;;5068767;28;19916;-90
2021/07/26 01:29:45;;;;;;;;;;;;;;;;;;5063792;28;19909;-90
2021/07/26 01:32:11;;;;;;;;;;;;;;;;;;5070792;28;19909;-91
2021/07/26 01:34:37;;;;;;;;;;;;;;;;;;5064038;28;19913;-90
2021/07/26 01:37:03;;;;;;;;;;;;;;;;;;5063634;28;19924;-90
2021/07/26 01:39:28;;;;;;;;;;;;;;;;;;5068714;28;19909;-90
2021/07/26 01:41:55;;;;;;;;;;;;;;;;;;5052134;28;20288;-89
2021/07/26 01:44:21;;;;;;;;;;;;;;;;;;5081177;28;19948;-90
2021/07/26 01:46:47;;;;;;;;;;;;;;;;;;5079925;28;19909;-91
2021/07/26 01:49:12;;;;;;;;;;;;;;;;;;5054797;28;19944;-90
2021/07/26 01:51:38;;;;;;;;;;;;;;;;;;5054992;28;19913;-90
2021/07/26 01:54:04;;;;;;;;;;;;;;;;;;5062972;28;19908;-92
2021/07/26 01:56:30;;;;;;;;;;;;;;;;;;5060703;28;19917;-90
2021/07/26 01:58:58;;;;;;;;;;;;;;;;;;5062067;28;19916;-89
2021/07/26 02:01:23;;;;;;;;;;;;;;;;;;5061551;28;20280;-90
2021/07/26 02:03:49;;;;;;;;;;;;;;;;;;5062404;28;19939;-90
2021/07/26 02:06:15;;;;;;;;;;;;;;;;;;5058655;28;19916;-90
2021/07/26 02:08:41;;;;;;;;;;;;;;;;;;5063027;28;19912;-90
2021/07/26 02:11:07;;;;;;;;;;;;;;;;;;5068494;28;19909;-90
2021/07/26 02:13:33;;;;;;;;;;;;;;;;;;5065964;28;19909;-90
2021/07/26 02:15:59;;;;;;;;;;;;;;;;;;5063180;28;19912;-90
2021/07/26 02:18:25;;;;;;;;;;;;;;;;;;5065576;28;19922;-90
2021/07/26 02:20:50;;;;;;;;;;;;;;;;;;5071480;28;19909;-90
2021/07/26 02:23:16;;;;;;;;;;;;;;;;;;5073189;28;19972;-90
2021/07/26 02:25:42;;;;;;;;;;;;;;;;;;5070418;28;19966;-90
2021/07/26 02:28:09;;;;;;;;;;;;;;;;;;5076335;28;19920;-89
2021/07/26 02:30:34;;;;;;;;;;;;;;;;;;5079357;28;19944;-90
2021/07/26 02:33:00;;;;;;;;;;;;;;;;;;5077364;28;19913;-90
2021/07/26 02:35:28;;;;;;;;;;;;;;;;;;5059204;28;20261;-90
2021/07/26 02:37:54;;;;;;;;;;;;;;;;;;5056280;28;20377;-90
2021/07/26 02:40:20;;;;;;;;;;;;;;;;;;5071255;28;19909;-91
2021/07/26 02:42:46;;;;;;;;;;;;;;;;;;5066077;28;19938;-90
2021/07/26 02:45:12;;;;;;;;;;;;;;;;;;5066767;28;19913;-90
2021/07/26 02:47:37;;;;;;;;;;;;;;;;;;5069303;28;19931;-91
2021/07/26 02:50:03;;;;;;;;;;;;;;;;;;5071110;28;19920;-90
2021/07/26 02:52:29;;;;;;;;;;;;;;;;;;5070769;28;19948;-90
2021/07/26 02:54:55;;;;;;;;;;;;;;;;;;5062091;28;19995;-90
2021/07/26 02:57:21;;;;;;;;;;;;;;;;;;5059839;28;19920;-89
2021/07/26 02:59:47;;;;;;;;;;;;;;;;;;5062703;28;20385;-89
2021/07/26 03:02:13;;;;;;;;;;;;;;;;;;5061028;28;19917;-90
2021/07/26 03:04:39;;;;;;;;;;;;;;;;;;5059572;28;19955;-90
2021/07/26 03:07:05;;;;;;;;;;;;;;;;;;5063279;28;20277;-90
2021/07/26 03:09:30;;;;;;;;;;;;;;;;;;5049761;28;19913;-90
2021/07/26 03:11:56;;;;;;;;;;;;;;;;;;5060958;28;19967;-90
2021/07/26 03:14:22;;;;;;;;;;;;;;;;;;5062303;28;19919;-89
2021/07/26 03:16:48;;;;;;;;;;;;;;;;;;5064909;28;19917;-90
2021/07/26 03:19:14;;;;;;;;;;;;;;;;;;5072057;28;19908;-90
2021/07/26 03:21:40;;;;;;;;;;;;;;;;;;5067957;28;19905;-89
2021/07/26 03:24:06;;;;;;;;;;;;;;;;;;5078828;28;19928;-90
2021/07/26 03:26:32;;;;;;;;;;;;;;;;;;5078650;28;19916;-89
2021/07/26 03:28:58;;;;;;;;;;;;;;;;;;5076927;28;20138;-90
2021/07/26 03:31:23;;;;;;;;;;;;;;;;;;5075485;28;19911;-91
2021/07/26 03:33:49;;;;;;;;;;;;;;;;;;5074697;28;19923;-91
2021/07/26 03:36:15;;;;;;;;;;;;;;;;;;5063555;28;19912;-91
2021/07/26 03:38:41;;;;;;;;;;;;;;;;;;5070403;28;19909;-91
2021/07/26 03:41:07;;;;;;;;;;;;;;;;;;5063303;28;19917;-90
2021/07/26 03:43:33;;;;;;;;;;;;;;;;;;5072258;28;19924;-90
2021/07/26 03:45:59;;;;;;;;;;;;;;;;;;5068901;28;19923;-91
2021/07/26 03:48:25;;;;;;;;;;;;;;;;;;5078520;28;19967;-90
2021/07/26 03:50:50;;;;;;;;;;;;;;;;;;5067240;28;19949;-91
2021/07/26 03:53:17;;;;;;;;;;;;;;;;;;5086157;28;19927;-90
2021/07/26 03:55:43;;;;;;;;;;;;;;;;;;5070544;28;19908;-91
2021/07/26 03:58:09;;;;;;;;;;;;;;;;;;5066073;28;20304;-91
2021/07/26 04:00:35;;;;;;;;;;;;;;;;;;5061791;28;19999;-90
2021/07/26 04:06:14;;;;;;;;;;;;;;;;;;5058092;28;19939;-91
2021/07/26 04:08:33;;;;;;;;;;;;;;;;;;5062722;28;19909;-93
2021/07/26 04:11:04;;;;;;;;;;;;;;;;;;5063861;28;19943;-92
2021/07/26 04:13:32;;;;;;;;;;;;;;;;;;5065084;28;20250;-93
2021/07/26 04:15:58;;;;;;;;;;;;;;;;;;5064172;28;19943;-92
2021/07/26 04:18:25;;;;;;;;;;;;;;;;;;5068178;28;19940;-92
2021/07/26 04:20:52;;;;;;;;;;;;;;;;;;5059097;28;19920;-92
2021/07/26 04:23:17;;;;;;;;;;;;;;;;;;5067273;28;19975;-92
2021/07/26 04:25:43;;;;;;;;;;;;;;;;;;5072801;28;19909;-92
2021/07/26 04:28:09;;;;;;;;;;;;;;;;;;5067347;28;19920;-92
2021/07/26 04:30:35;;;;;;;;;;;;;;;;;;5068588;28;19908;-91
2021/07/26 04:33:01;;;;;;;;;;;;;;;;;;5071672;28;19935;-92
2021/07/26 04:35:27;;;;;;;;;;;;;;;;;;5083608;28;19909;-92
2021/07/26 04:37:53;;;;;;;;;;;;;;;;;;5071453;28;19908;-91
2021/07/26 04:40:19;;;;;;;;;;;;;;;;;;5071530;28;19915;-91
2021/07/26 04:42:45;;;;;;;;;;;;;;;;;;5071948;28;19921;-92
2021/07/26 04:45:10;;;;;;;;;;;;;;;;;;5072507;28;19980;-93
2021/07/26 04:47:36;;;;;;;;;;;;;;;;;;5071224;28;19987;-92
2021/07/26 04:50:02;;;;;;;;;;;;;;;;;;5071639;28;19976;-92
2021/07/26 04:52:28;;;;;;;;;;;;;;;;;;5068097;28;19917;-92
2021/07/26 04:54:54;;;;;;;;;;;;;;;;;;5072757;28;19924;-92
2021/07/26 04:57:20;;;;;;;;;;;;;;;;;;5065203;28;19921;-93
2021/07/26 04:59:46;;;;;;;;;;;;;;;;;;5066858;28;19948;-92
2021/07/26 05:02:12;;;;;;;;;;;;;;;;;;5073932;28;19916;-91
2021/07/26 05:04:38;;;;;;;;;;;;;;;;;;5077531;28;19916;-91
2021/07/26 05:07:03;;;;;;;;;;;;;;;;;;5072931;28;19909;-91
2021/07/26 05:09:29;;;;;;;;;;;;;;;;;;5061494;28;19933;-91
2021/07/26 05:11:55;;;;;;;;;;;;;;;;;;5086434;28;19909;-91
2021/07/26 05:14:21;;;;;;;;;;;;;;;;;;5058449;28;20026;-91
2021/07/26 05:16:47;;;;;;;;;;;;;;;;;;5061989;28;20003;-92
2021/07/26 05:19:13;;;;;;;;;;;;;;;;;;5062145;28;20003;-92
2021/07/26 05:21:39;;;;;;;;;;;;;;;;;;5065833;28;19910;-91
2021/07/26 05:24:05;;;;;;;;;;;;;;;;;;5051921;28;20339;-92
2021/07/26 05:26:31;;;;;;;;;;;;;;;;;;5059777;28;19909;-90
2021/07/26 05:28:57;;;;;;;;;;;;;;;;;;5067837;28;19924;-91
2021/07/26 05:31:23;;;;;;;;;;;;;;;;;;5067510;28;19909;-91
2021/07/26 05:33:49;;;;;;;;;;;;;;;;;;5070699;28;19916;-92
2021/07/26 05:36:14;;;;;;;;;;;;;;;;;;5087692;28;19952;-91
2021/07/26 05:38:40;;;;;;;;;;;;;;;;;;5069117;28;19913;-92
2021/07/26 05:41:06;;;;;;;;;;;;;;;;;;5076982;28;20372;-92
2021/07/26 05:43:32;;;;;;;;;;;;;;;;;;5061380;28;19920;-93
2021/07/26 05:45:58;;;;;;;;;;;;;;;;;;5065274;28;19943;-92
2021/07/26 05:48:24;;;;;;;;;;;;;;;;;;5071936;28;20004;-92
2021/07/26 05:50:50;;;;;;;;;;;;;;;;;;5069147;28;19919;-89
2021/07/26 05:53:16;;;;;;;;;;;;;;;;;;5066829;28;20288;-92
2021/07/26 05:55:42;;;;;;;;;;;;;;;;;;5069879;28;19909;-92
2021/07/26 05:58:08;;;;;;;;;;;;;;;;;;5074442;28;19921;-92
2021/07/26 06:00:45;;;;;;;;;;;;;;;;;;5066750;28;19913;-92
2021/07/26 06:03:11;;;;;;;;;;;;;;;;;;5072935;28;19921;-92
2021/07/26 06:05:37;;;;;;;;;;;;;;;;;;5063570;28;19901;-92
2021/07/26 06:08:03;;;;;;;;;;;;;;;;;;5072501;28;19917;-92
2021/07/26 06:10:29;;;;;;;;;;;;;;;;;;5073290;28;19920;-91
2021/07/26 06:12:55;;;;;;;;;;;;;;;;;;5074441;28;19912;-92
2021/07/26 06:15:21;;;;;;;;;;;;;;;;;;5069434;28;19908;-91
2021/07/26 06:17:47;;;;;;;;;;;;;;;;;;5070472;28;19915;-91
2021/07/26 06:20:13;;;;;;;;;;;;;;;;;;5072968;28;19913;-91
2021/07/26 06:22:39;;;;;;;;;;;;;;;;;;5073765;28;19921;-92
2021/07/26 06:25:09;;;;;;;;;;;;;;;;;;5073548;28;19944;-92
2021/07/26 06:27:35;;;;;;;;;;;;;;;;;;5065805;28;19909;-92
2021/07/26 06:30:01;;;;;;;;;;;;;;;;;;5074345;28;19928;-91
2021/07/26 06:32:28;;;;;;;;;;;;;;;;;;5070115;28;19909;-90
2021/07/26 06:34:54;;;;;;;;;;;;;;;;;;5065978;28;20311;-90
2021/07/26 06:37:20;;;;;;;;;;;;;;;;;;5065422;28;19909;-90
2021/07/26 06:39:46;;;;;;;;;;;;;;;;;;5065840;28;19916;-89
2021/07/26 06:42:12;;;;;;;;;;;;;;;;;;5058518;28;19941;-89
2021/07/26 06:44:39;;;;;;;;;;;;;;;;;;5060165;28;19916;-90
2021/07/26 06:47:05;;;;;;;;;;;;;;;;;;5058704;28;19920;-88
2021/07/26 06:49:31;;;;;;;;;;;;;;;;;;5065164;28;20281;-89
2021/07/26 06:51:57;;;;;;;;;;;;;;;;;;5061324;28;19912;-89
2021/07/26 06:54:23;;;;;;;;;;;;;;;;;;5061676;28;19919;-89
2021/07/26 06:56:48;;;;;;;;;;;;;;;;;;5060474;28;20376;-89
2021/07/26 06:59:14;;;;;;;;;;;;;;;;;;5063552;28;20440;-90
2021/07/26 07:01:42;;;;;;;;;;;;;;;;;;5063415;28;19913;-91
2021/07/26 07:04:08;;;;;;;;;;;;;;;;;;5064257;28;20021;-90
2021/07/26 07:06:34;;;;;;;;;;;;;;;;;;5056154;28;20345;-88
2021/07/26 07:08:59;;;;;;;;;;;;;;;;;;5065111;28;19913;-90
2021/07/26 07:11:25;;;;;;;;;;;;;;;;;;5060164;28;20347;-90
2021/07/26 07:13:51;;;;;;;;;;;;;;;;;;5060767;28;19920;-90
2021/07/26 07:16:17;;;;;;;;;;;;;;;;;;5058899;28;20372;-90
2021/07/26 07:18:43;;;;;;;;;;;;;;;;;;5059463;28;19908;-89
2021/07/26 07:21:09;;;;;;;;;;;;;;;;;;5054538;28;19951;-90
2021/07/26 07:23:35;;;;;;;;;;;;;;;;;;5074901;28;19925;-90
2021/07/26 07:26:01;;;;;;;;;;;;;;;;;;5055807;28;19923;-89
2021/07/26 07:28:27;;;;;;;;;;;;;;;;;;5057944;28;20008;-90
2021/07/26 07:30:53;;;;;;;;;;;;;;;;;;5058104;28;19955;-90
2021/07/26 07:33:19;;;;;;;;;;;;;;;;;;5063642;28;19956;-90
2021/07/26 07:35:45;;;;;;;;;;;;;;;;;;5064268;28;19920;-90
2021/07/26 07:38:11;;;;;;;;;;;;;;;;;;5066129;28;19940;-89
2021/07/26 07:40:39;;;;;;;;;;;;;;;;;;5072033;28;19915;-89
2021/07/26 07:43:06;;;;;;;;;;;;;;;;;;5057990;28;19939;-90
2021/07/26 07:45:32;;;;;;;;;;;;;;;;;;5059354;28;19916;-89
2021/07/26 07:47:58;;;;;;;;;;;;;;;;;;5061678;28;19908;-90
2021/07/26 07:50:24;;;;;;;;;;;;;;;;;;5061147;28;19955;-90
2021/07/26 07:52:50;;;;;;;;;;;;;;;;;;5058846;28;19920;-90
2021/07/26 07:55:16;;;;;;;;;;;;;;;;;;5064736;28;19920;-90
2021/07/26 07:57:44;;;;;;;;;;;;;;;;;;5060685;28;19921;-90
2021/07/26 08:00:12;;;;;;;;;;;;;;;;;;5055286;28;19919;-89
2021/07/26 08:02:37;;;;;;;;;;;;;;;;;;5073116;28;19921;-89
2021/07/26 08:05:03;;;;;;;;;;;;;;;;;;5073458;28;19913;-89
2021/07/26 08:07:29;;;;;;;;;;;;;;;;;;5061092;28;19934;-89
2021/07/26 08:09:55;;;;;;;;;;;;;;;;;;5059583;28;19958;-89
2021/07/26 08:12:21;;;;;;;;;;;;;;;;;;5055755;28;19913;-89
2021/07/26 08:14:47;;;;;;;;;;;;;;;;;;5058802;28;19909;-89
2021/07/26 08:17:13;;;;;;;;;;;;;;;;;;5058734;28;19913;-89
2021/07/26 08:19:39;;;;;;;;;;;;;;;;;;5067821;28;20178;-89
2021/07/26 08:22:05;;;;;;;;;;;;;;;;;;5080530;28;19935;-89
2021/07/26 08:24:31;;;;;;;;;;;;;;;;;;5085481;28;19909;-89
2021/07/26 08:26:56;;;;;;;;;;;;;;;;;;5068193;28;19916;-88
2021/07/26 08:29:22;;;;;;;;;;;;;;;;;;5062226;28;20346;-89
2021/07/26 08:31:48;;;;;;;;;;;;;;;;;;5062760;28;19972;-89
2021/07/26 08:34:14;;;;;;;;;;;;;;;;;;5059352;28;19943;-89
2021/07/26 08:36:40;;;;;;;;;;;;;;;;;;5061452;28;19932;-89
2021/07/26 08:39:06;;;;;;;;;;;;;;;;;;5058626;28;19982;-89
2021/07/26 08:41:32;;;;;;;;;;;;;;;;;;5059122;28;19920;-89
2021/07/26 08:43:58;;;;;;;;;;;;;;;;;;5061770;28;19917;-89
2021/07/26 08:46:23;;;;;;;;;;;;;;;;;;5068296;28;19995;-89
2021/07/26 08:48:50;;;;;;;;;;;;;;;;;;5070983;28;19909;-88
2021/07/26 08:51:16;;;;;;;;;;;;;;;;;;5054167;28;20384;-89
2021/07/26 08:53:42;;;;;;;;;;;;;;;;;;5060474;28;19996;-89
2021/07/26 08:56:08;;;;;;;;;;;;;;;;;;5057794;28;20062;-89
2021/07/26 08:58:39;;;;;;;;;;;;;;;;;;5061437;28;19967;-89
2021/07/26 09:01:05;;;;;;;;;;;;;;;;;;5055386;28;19909;-89
2021/07/26 09:03:31;;;;;;;;;;;;;;;;;;5056302;28;19921;-89
2021/07/26 09:05:57;;;;;;;;;;;;;;;;;;5056500;28;19921;-89
2021/07/26 09:08:22;;;;;;;;;;;;;;;;;;5053858;28;20344;-90
2021/07/26 09:10:48;;;;;;;;;;;;;;;;;;5053947;28;19927;-89
2021/07/26 09:13:14;;;;;;;;;;;;;;;;;;5057584;28;19931;-89
2021/07/26 09:15:41;;;;;;;;;;;;;;;;;;5057337;28;19909;-90
2021/07/26 09:18:07;;;;;;;;;;;;;;;;;;5061634;28;19913;-88
2021/07/26 09:20:33;;;;;;;;;;;;;;;;;;5059305;28;19944;-89
2021/07/26 09:22:59;;;;;;;;;;;;;;;;;;5059759;28;19929;-89
2021/07/26 09:25:25;;;;;;;;;;;;;;;;;;5068075;28;19976;-88
2021/07/26 09:27:51;;;;;;;;;;;;;;;;;;5059594;28;19979;-90
2021/07/26 09:30:17;;;;;;;;;;;;;;;;;;5079331;28;19988;-90
2021/07/26 09:32:43;;;;;;;;;;;;;;;;;;5073989;28;20387;-87
2021/07/26 09:35:09;;;;;;;;;;;;;;;;;;5056621;28;19913;-89
2021/07/26 09:37:35;;;;;;;;;;;;;;;;;;5081253;28;19909;-88
2021/07/26 09:40:01;;;;;;;;;;;;;;;;;;5059442;28;19916;-88
2021/07/26 09:42:27;;;;;;;;;;;;;;;;;;5055896;28;19955;-88
2021/07/26 09:44:53;;;;;;;;;;;;;;;;;;5059612;28;19913;-88
2021/07/26 09:47:19;;;;;;;;;;;;;;;;;;5069814;28;20103;-87
2021/07/26 09:49:45;;;;;;;;;;;;;;;;;;5068535;28;19913;-88
2021/07/26 09:52:11;;;;;;;;;;;;;;;;;;5068663;28;19959;-88
2021/07/26 09:54:37;;;;;;;;;;;;;;;;;;5067127;28;19987;-88
2021/07/26 09:57:02;;;;;;;;;;;;;;;;;;5063753;28;20346;-88
2021/07/26 09:59:28;;;;;;;;;;;;;;;;;;5066720;28;19917;-89
2021/07/26 10:01:55;;;;;;;;;;;;;;;;;;5064420;28;20399;-88
2021/07/26 10:04:21;;;;;;;;;;;;;;;;;;5068226;28;19915;-90
2021/07/26 10:06:47;;;;;;;;;;;;;;;;;;5069580;28;19999;-88
2021/07/26 10:09:12;;;;;;;;;;;;;;;;;;5066272;28;20284;-89
2021/07/26 10:11:38;;;;;;;;;;;;;;;;;;5069498;28;19913;-88
2021/07/26 10:14:04;;;;;;;;;;;;;;;;;;5087554;28;19901;-87
2021/07/26 10:16:32;;;;;;;;;;;;;;;;;;5076030;28;21538;-87
2021/07/26 10:18:58;;;;;;;;;;;;;;;;;;5064566;28;19979;-89
2021/07/26 10:21:24;;;;;;;;;;;;;;;;;;5069359;28;19916;-87
2021/07/26 10:23:50;;;;;;;;;;;;;;;;;;5066115;28;19921;-89
2021/07/26 10:26:15;;;;;;;;;;;;;;;;;;5068143;28;19999;-89
2021/07/26 10:28:41;;;;;;;;;;;;;;;;;;5088156;28;19915;-88
2021/07/26 10:31:07;;;;;;;;;;;;;;;;;;5066851;28;20391;-89
2021/07/26 10:33:33;;;;;;;;;;;;;;;;;;5061465;28;19913;-90
2021/07/26 10:35:59;;;;;;;;;;;;;;;;;;5064505;28;19913;-89
2021/07/26 10:38:25;;;;;;;;;;;;;;;;;;5068682;28;19910;-88
2021/07/26 10:40:53;;;;;;;;;;;;;;;;;;5072123;28;19909;-87
2021/07/26 10:43:19;;;;;;;;;;;;;;;;;;5066957;28;19956;-89
2021/07/26 10:45:45;;;;;;;;;;;;;;;;;;5065019;28;19916;-90
2021/07/26 10:48:11;;;;;;;;;;;;;;;;;;5080666;28;19909;-90
2021/07/26 10:50:37;;;;;;;;;;;;;;;;;;5086497;28;19916;-87
2021/07/26 10:53:02;;;;;;;;;;;;;;;;;;5065287;28;19952;-88
2021/07/26 10:55:28;;;;;;;;;;;;;;;;;;5071711;28;19912;-88
2021/07/26 10:57:57;;;;;;;;;;;;;;;;;;5072298;28;19980;-88
2021/07/26 11:00:24;;;;;;;;;;;;;;;;;;5071852;28;19909;-88
2021/07/26 11:02:50;;;;;;;;;;;;;;;;;;5066031;28;19921;-88
2021/07/26 11:05:16;;;;;;;;;;;;;;;;;;5072731;28;19962;-88
2021/07/26 11:07:42;;;;;;;;;;;;;;;;;;5072193;28;19913;-91
2021/07/26 11:10:07;;;;;;;;;;;;;;;;;;5067924;28;19916;-88
2021/07/26 11:12:33;;;;;;;;;;;;;;;;;;5079803;28;20383;-88
2021/07/26 11:14:59;;;;;;;;;;;;;;;;;;5072267;28;20313;-87
2021/07/26 11:17:25;;;;;;;;;;;;;;;;;;5065226;28;20007;-88
2021/07/26 11:20:02;;;;;;;;;;;;;;;;;;5073829;28;19941;-88
2021/07/26 11:22:29;;;;;;;;;;;;;;;;;;5055153;28;19917;-89
2021/07/26 11:24:55;;;;;;;;;;;;;;;;;;5066745;28;19909;-87
2021/07/26 11:27:21;;;;;;;;;;;;;;;;;;5061670;28;19913;-92
2021/07/26 11:29:47;;;;;;;;;;;;;;;;;;5080156;28;19959;-89
2021/07/26 11:32:13;;;;;;;;;;;;;;;;;;5068449;28;19909;-88
2021/07/26 11:34:38;;;;;;;;;;;;;;;;;;5069927;28;19968;-89
2021/07/26 11:37:05;;;;;;;;;;;;;;;;;;5057579;28;19909;-89
2021/07/26 11:39:30;;;;;;;;;;;;;;;;;;5077802;28;19913;-89
2021/07/26 11:41:56;;;;;;;;;;;;;;;;;;5059595;28;19919;-89
2021/07/26 11:44:22;;;;;;;;;;;;;;;;;;5070496;28;19912;-89
2021/07/26 11:46:48;;;;;;;;;;;;;;;;;;5059497;28;19913;-92
2021/07/26 11:49:14;;;;;;;;;;;;;;;;;;5073303;28;19909;-93
2021/07/26 11:51:40;;;;;;;;;;;;;;;;;;5071355;28;19919;-93
2021/07/26 11:54:06;;;;;;;;;;;;;;;;;;5070726;28;19921;-93
2021/07/26 11:56:32;;;;;;;;;;;;;;;;;;5067228;28;20355;-92
2021/07/26 11:58:58;;;;;;;;;;;;;;;;;;5061310;28;19921;-93
2021/07/26 12:01:23;;;;;;;;;;;;;;;;;;5064877;28;19913;-92
2021/07/26 12:03:49;;;;;;;;;;;;;;;;;;5084473;28;19921;-92
2021/07/26 12:06:15;;;;;;;;;;;;;;;;;;5074226;28;19976;-92
2021/07/26 12:08:41;;;;;;;;;;;;;;;;;;5072529;28;20341;-93
2021/07/26 12:11:07;;;;;;;;;;;;;;;;;;5072870;28;19995;-93
2021/07/26 12:13:33;;;;;;;;;;;;;;;;;;5065024;28;19928;-93
2021/07/26 12:15:59;;;;;;;;;;;;;;;;;;5083810;28;19956;-92
2021/07/26 12:18:25;;;;;;;;;;;;;;;;;;5063928;28;19912;-92
2021/07/26 12:20:50;;;;;;;;;;;;;;;;;;5077267;28;19946;-92
2021/07/26 12:23:16;;;;;;;;;;;;;;;;;;5052629;28;19960;-92
2021/07/26 12:25:42;;;;;;;;;;;;;;;;;;5067232;28;19998;-93
2021/07/26 12:28:08;;;;;;;;;;;;;;;;;;5068198;28;20301;-92
2021/07/26 12:30:35;;;;;;;;;;;;;;;;;;5044850;28;19945;-92
2021/07/26 12:33:00;;;;;;;;;;;;;;;;;;5065064;28;19975;-93
2021/07/26 12:35:28;;;;;;;;;;;;;;;;;;5062412;28;19913;-92
2021/07/26 12:37:54;;;;;;;;;;;;;;;;;;5088452;28;19909;-93
2021/07/26 12:40:19;;;;;;;;;;;;;;;;;;5078774;28;19919;-93
2021/07/26 12:42:45;;;;;;;;;;;;;;;;;;5055792;28;19924;-92
2021/07/26 12:45:11;;;;;;;;;;;;;;;;;;5070085;28;19950;-92
2021/07/26 12:47:37;;;;;;;;;;;;;;;;;;5088537;28;19991;-93
2021/07/26 12:50:03;;;;;;;;;;;;;;;;;;5072822;28;19913;-93
2021/07/26 12:52:29;;;;;;;;;;;;;;;;;;5088044;28;19973;-94
2021/07/26 12:54:55;;;;;;;;;;;;;;;;;;5090126;28;19923;-93
2021/07/26 12:57:21;;;;;;;;;;;;;;;;;;5066087;28;19921;-93
2021/07/26 12:59:46;;;;;;;;;;;;;;;;;;5078719;28;19909;-93
2021/07/26 13:02:12;;;;;;;;;;;;;;;;;;5068957;28;19970;-93
2021/07/26 13:04:38;;;;;;;;;;;;;;;;;;5068869;28;19913;-93
2021/07/26 13:07:04;;;;;;;;;;;;;;;;;;5080826;28;19908;-93
2021/07/26 13:09:30;;;;;;;;;;;;;;;;;;5076182;28;19909;-93
2021/07/26 13:11:56;;;;;;;;;;;;;;;;;;5075769;28;19909;-93
2021/07/26 13:14:22;;;;;;;;;;;;;;;;;;5066815;28;19923;-93
2021/07/26 13:16:48;;;;;;;;;;;;;;;;;;5071497;28;19980;-92
2021/07/26 13:19:14;;;;;;;;;;;;;;;;;;5068331;28;19967;-94
2021/07/26 13:21:40;;;;;;;;;;;;;;;;;;5085706;28;19909;-92
2021/07/26 13:24:06;;;;;;;;;;;;;;;;;;5071629;28;19925;-93
2021/07/26 13:26:32;;;;;;;;;;;;;;;;;;5076110;28;19915;-93
2021/07/26 13:28:57;;;;;;;;;;;;;;;;;;5084154;28;19940;-93
2021/07/26 13:31:23;;;;;;;;;;;;;;;;;;5071548;28;19980;-92
2021/07/26 13:33:49;;;;;;;;;;;;;;;;;;5071632;28;19991;-93
2021/07/26 13:36:15;;;;;;;;;;;;;;;;;;5065201;28;19908;-93
2021/07/26 13:38:41;;;;;;;;;;;;;;;;;;5069837;28;19913;-93
2021/07/26 13:41:07;;;;;;;;;;;;;;;;;;5057168;28;19909;-92
2021/07/26 13:43:33;;;;;;;;;;;;;;;;;;5075911;28;20011;-92
2021/07/26 13:45:59;;;;;;;;;;;;;;;;;;5079563;28;20319;-88
2021/07/26 13:48:24;;;;;;;;;;;;;;;;;;5048924;28;19987;-91
2021/07/26 13:50:50;;;;;;;;;;;;;;;;;;5069614;28;19913;-89
2021/07/26 13:53:16;;;;;;;;;;;;;;;;;;5057609;28;19912;-90
2021/07/26 13:55:42;;;;;;;;;;;;;;;;;;5050417;28;19921;-89
2021/07/26 13:58:08;;;;;;;;;;;;;;;;;;5079112;28;20004;-90
2021/07/26 14:00:34;;;;;;;;;;;;;;;;;;5056770;28;20357;-90
2021/07/26 14:03:00;;;;;;;;;;;;;;;;;;5063526;28;19939;-90
2021/07/26 14:05:26;;;;;;;;;;;;;;;;;;5056420;28;20345;-90
2021/07/26 14:07:52;;;;;;;;;;;;;;;;;;5050693;28;20264;-90
2021/07/26 14:10:18;;;;;;;;;;;;;;;;;;5058901;28;19920;-91
2021/07/26 14:12:44;;;;;;;;;;;;;;;;;;5072924;28;19912;-91
2021/07/26 14:15:10;;;;;;;;;;;;;;;;;;5054368;28;19913;-90
2021/07/26 14:17:36;;;;;;;;;;;;;;;;;;5054866;28;20019;-89
2021/07/26 14:20:01;;;;;;;;;;;;;;;;;;5060512;28;19919;-89
2021/07/26 14:22:27;;;;;;;;;;;;;;;;;;5053895;28;20400;-89
2021/07/26 14:24:53;;;;;;;;;;;;;;;;;;5064984;28;19949;-90
2021/07/26 14:27:19;;;;;;;;;;;;;;;;;;5060239;28;20106;-89
2021/07/26 14:29:47;;;;;;;;;;;;;;;;;;5055480;28;19920;-88
2021/07/26 14:32:12;;;;;;;;;;;;;;;;;;5059259;28;20349;-89
2021/07/26 14:34:38;;;;;;;;;;;;;;;;;;5064526;28;19958;-89
2021/07/26 14:37:04;;;;;;;;;;;;;;;;;;5070596;28;19943;-89
2021/07/26 14:39:30;;;;;;;;;;;;;;;;;;5065313;28;19980;-91
2021/07/26 14:41:56;;;;;;;;;;;;;;;;;;5060870;28;19916;-90
2021/07/26 14:44:22;;;;;;;;;;;;;;;;;;5063198;28;20440;-90
2021/07/26 14:46:48;;;;;;;;;;;;;;;;;;5048358;28;19908;-90
2021/07/26 14:49:14;;;;;;;;;;;;;;;;;;5064021;28;20003;-89
2021/07/26 14:51:40;;;;;;;;;;;;;;;;;;5056376;28;19913;-90
2021/07/26 14:54:06;;;;;;;;;;;;;;;;;;5059037;28;19916;-90
2021/07/26 14:56:32;;;;;;;;;;;;;;;;;;5080507;28;20011;-90
2021/07/26 14:58:58;;;;;;;;;;;;;;;;;;5065519;28;19913;-90
2021/07/26 15:01:23;;;;;;;;;;;;;;;;;;5067463;28;20004;-90
2021/07/26 15:03:49;;;;;;;;;;;;;;;;;;5084740;28;19947;-90
2021/07/26 15:06:15;;;;;;;;;;;;;;;;;;5052629;28;19920;-90
2021/07/26 15:08:41;;;;;;;;;;;;;;;;;;5038753;28;19955;-88
2021/07/26 15:11:07;;;;;;;;;;;;;;;;;;5050162;28;19919;-89
2021/07/26 15:13:33;;;;;;;;;;;;;;;;;;5064727;28;19912;-89
2021/07/26 15:15:59;;;;;;;;;;;;;;;;;;5062955;28;19919;-88
2021/07/26 15:18:25;;;;;;;;;;;;;;;;;;5064419;28;19913;-89
2021/07/26 15:20:50;;;;;;;;;;;;;;;;;;5051834;28;19913;-89
2021/07/26 15:23:16;;;;;;;;;;;;;;;;;;5054393;28;20377;-89
2021/07/26 15:25:42;;;;;;;;;;;;;;;;;;5060639;28;19971;-89
2021/07/26 15:28:08;;;;;;;;;;;;;;;;;;5089528;28;19909;-89
2021/07/26 15:30:34;;;;;;;;;;;;;;;;;;5068963;28;19916;-89
2021/07/26 15:33:00;;;;;;;;;;;;;;;;;;5056302;28;20353;-89
2021/07/26 15:35:26;;;;;;;;;;;;;;;;;;5045964;28;20188;-89
2021/07/26 15:37:52;;;;;;;;;;;;;;;;;;5063406;28;19956;-89
2021/07/26 15:40:18;;;;;;;;;;;;;;;;;;5062209;28;19909;-89
2021/07/26 15:42:44;;;;;;;;;;;;;;;;;;5063409;28;19916;-89
2021/07/26 15:45:10;;;;;;;;;;;;;;;;;;5060046;28;19913;-89
2021/07/26 15:47:35;;;;;;;;;;;;;;;;;;5050645;28;19913;-89
2021/07/26 15:50:01;;;;;;;;;;;;;;;;;;5057765;28;19952;-89
2021/07/26 15:52:27;;;;;;;;;;;;;;;;;;5062472;28;20025;-89
2021/07/26 15:54:53;;;;;;;;;;;;;;;;;;5056358;28;19984;-90
2021/07/26 15:57:19;;;;;;;;;;;;;;;;;;5053069;28;19925;-90
2021/07/26 15:59:45;;;;;;;;;;;;;;;;;;5051203;28;19935;-92
2021/07/26 16:02:11;;;;;;;;;;;;;;;;;;5066916;28;19916;-91
2021/07/26 16:04:37;;;;;;;;;;;;;;;;;;5054032;28;19987;-84
2021/07/26 16:07:03;;;;;;;;;;;;;;;;;;5054257;28;19909;-86
2021/07/26 16:09:29;;;;;;;;;;;;;;;;;;5054113;28;20380;-87
2021/07/26 16:11:56;;;;;;;;;;;;;;;;;;5048148;28;19917;-86
2021/07/26 16:14:21;;;;;;;;;;;;;;;;;;5061761;28;19919;-87
2021/07/26 16:16:47;;;;;;;;;;;;;;;;;;5056205;28;19917;-88
2021/07/26 16:19:13;;;;;;;;;;;;;;;;;;5068454;28;19992;-88
2021/07/26 16:21:39;;;;;;;;;;;;;;;;;;5059102;28;19937;-87
2021/07/26 16:24:05;;;;;;;;;;;;;;;;;;5052668;28;20007;-88
2021/07/26 16:26:31;;;;;;;;;;;;;;;;;;5062517;28;20331;-88
2021/07/26 16:28:57;;;;;;;;;;;;;;;;;;5054927;28;19935;-88
2021/07/26 16:31:23;;;;;;;;;;;;;;;;;;5056894;28;19909;-89
2021/07/26 16:33:49;;;;;;;;;;;;;;;;;;5050282;28;20404;-89
2021/07/26 16:36:15;;;;;;;;;;;;;;;;;;5063834;28;19920;-88
2021/07/26 16:38:41;;;;;;;;;;;;;;;;;;5069999;28;19913;-87
2021/07/26 16:41:07;;;;;;;;;;;;;;;;;;5060745;28;19913;-86